sensor_id;sensor_type;location;lat;lon;timestamp;pressure;altitude;pressure_sealevel;temperature;humidity
78223;BME280;67497;53.058;21.618;2023-02-03T18:31:24;99610.84;;;22.18;36.58
78223;BME280;67497;53.058;21.618;2023-02-03T18:33:50;99610.13;;;22.11;36.58
78223;BME280;67497;53.058;21.618;2023-02-03T18:36:16;99605.75;;;22.03;36.45
78223;BME280;67497;53.058;21.618;2023-02-03T18:38:43;99611.22;;;21.98;36.67
78223;BME280;67497;53.058;21.618;2023-02-03T18:41:20;99612.19;;;21.92;36.49
78223;BME280;67497;53.058;21.618;2023-02-03T18:43:47;99614.97;;;21.92;36.99
78223;BME280;67497;53.058;21.618;2023-02-03T18:46:19;99617.19;;;21.90;37.15
78223;BME280;67497;53.058;21.618;2023-02-03T18:48:45;99607.81;;;21.85;37.07
78223;BME280;67497;53.058;21.618;2023-02-03T19:24:48;99616.56;;;21.88;36.26
78223;BME280;67497;53.058;21.618;2023-02-03T19:29:12;99608.66;;;21.85;36.36
78223;BME280;67497;53.058;21.618;2023-02-03T19:31:53;99616.69;;;21.93;36.39
78223;BME280;67497;53.058;21.618;2023-02-03T19:34:19;99627.84;;;21.93;36.35
78223;BME280;67497;53.058;21.618;2023-02-03T19:36:44;99623.59;;;21.91;36.11
78223;BME280;67497;53.058;21.618;2023-02-03T19:39:12;99624.56;;;21.96;35.83
78223;BME280;67497;53.058;21.618;2023-02-03T19:42:40;99630.63;;;21.93;35.73
78223;BME280;67497;53.058;21.618;2023-02-03T19:44:41;99644.59;;;21.93;36.38
78223;BME280;67497;53.058;21.618;2023-02-03T19:46:42;99641.19;;;21.91;36.39
78223;BME280;67497;53.058;21.618;2023-02-03T19:48:43;99642.97;;;21.86;36.70
78223;BME280;67497;53.058;21.618;2023-02-03T19:50:45;99641.63;;;21.77;36.66
78223;BME280;67497;53.058;21.618;2023-02-03T19:52:46;99638.13;;;21.70;36.61
78223;BME280;67497;53.058;21.618;2023-02-03T19:54:48;99651.22;;;21.69;36.88
78223;BME280;67497;53.058;21.618;2023-02-03T19:56:51;99646.84;;;21.62;36.68
78223;BME280;67497;53.058;21.618;2023-02-03T19:58:51;99648.91;;;21.66;36.51
78223;BME280;67497;53.058;21.618;2023-02-03T20:00:53;99648.31;;;21.64;36.26
78223;BME280;67497;53.058;21.618;2023-02-03T20:02:53;99657.88;;;21.68;36.04
78223;BME280;67497;53.058;21.618;2023-02-03T20:04:54;99646.72;;;21.68;35.92
78223;BME280;67497;53.058;21.618;2023-02-03T20:06:55;99638.34;;;21.68;35.97
78223;BME280;67497;53.058;21.618;2023-02-03T20:08:56;99654.72;;;21.76;35.78
78223;BME280;67497;53.058;21.618;2023-02-03T20:10:59;99657.50;;;21.76;35.67
78223;BME280;67497;53.058;21.618;2023-02-03T20:13:00;99665.66;;;21.78;35.61
78223;BME280;67497;53.058;21.618;2023-02-03T20:15:00;99673.16;;;21.77;35.82
78223;BME280;67497;53.058;21.618;2023-02-03T20:17:01;99662.00;;;21.77;35.88
78223;BME280;67497;53.058;21.618;2023-02-03T20:19:04;99675.00;;;21.83;36.02
78223;BME280;67497;53.058;21.618;2023-02-03T20:21:04;99674.66;;;21.91;35.65
78223;BME280;67497;53.058;21.618;2023-02-03T20:23:05;99675.84;;;21.95;36.25
78223;BME280;67497;53.058;21.618;2023-02-03T20:25:06;99685.31;;;22.06;35.80
78223;BME280;67497;53.058;21.618;2023-02-03T20:27:06;99671.38;;;22.06;36.00
78223;BME280;67497;53.058;21.618;2023-02-03T20:29:07;99681.22;;;22.09;35.64
78223;BME280;67497;53.058;21.618;2023-02-03T20:31:08;99682.41;;;22.13;35.67
78223;BME280;67497;53.058;21.618;2023-02-03T20:33:08;99689.22;;;22.17;35.78
78223;BME280;67497;53.058;21.618;2023-02-03T20:35:09;99693.69;;;22.18;35.23
78223;BME280;67497;53.058;21.618;2023-02-03T20:37:10;99698.19;;;22.19;35.49
78223;BME280;67497;53.058;21.618;2023-02-03T20:39:18;99707.16;;;22.21;35.75
78223;BME280;67497;53.058;21.618;2023-02-03T20:41:20;99711.16;;;22.25;35.79
78223;BME280;67497;53.058;21.618;2023-02-03T20:43:22;99718.44;;;22.37;35.90
78223;BME280;67497;53.058;21.618;2023-02-03T20:45:23;99713.56;;;22.44;36.35
78223;BME280;67497;53.058;21.618;2023-02-03T20:47:24;99729.56;;;22.60;36.72
78223;BME280;67497;53.058;21.618;2023-02-03T20:49:25;99734.56;;;22.70;36.70
78223;BME280;67497;53.058;21.618;2023-02-03T20:51:26;99719.00;;;22.74;36.29
78223;BME280;67497;53.058;21.618;2023-02-03T20:53:28;99725.31;;;22.81;36.47
78223;BME280;67497;53.058;21.618;2023-02-03T20:55:28;99724.81;;;22.84;36.41
78223;BME280;67497;53.058;21.618;2023-02-03T20:57:29;99722.03;;;22.84;36.70
78223;BME280;67497;53.058;21.618;2023-02-03T20:59:29;99726.59;;;22.90;36.50
78223;BME280;67497;53.058;21.618;2023-02-03T21:01:30;99724.66;;;22.91;36.91
78223;BME280;67497;53.058;21.618;2023-02-03T21:03:32;99725.63;;;22.96;36.80
78223;BME280;67497;53.058;21.618;2023-02-03T21:05:51;99725.03;;;22.94;36.38
78223;BME280;67497;53.058;21.618;2023-02-03T21:07:52;99720.78;;;22.92;36.56
78223;BME280;67497;53.058;21.618;2023-02-03T21:09:54;99728.91;;;22.93;36.73
78223;BME280;67497;53.058;21.618;2023-02-03T21:11:54;99728.41;;;22.96;36.73
78223;BME280;67497;53.058;21.618;2023-02-03T21:13:55;99732.81;;;22.92;36.50
78223;BME280;67497;53.058;21.618;2023-02-03T21:15:57;99743.59;;;23.00;36.15
78223;BME280;67497;53.058;21.618;2023-02-03T21:18:26;99748.44;;;23.05;35.85
78223;BME280;67497;53.058;21.618;2023-02-03T21:20:30;99762.84;;;23.13;36.58
78223;BME280;67497;53.058;21.618;2023-02-03T21:22:31;99746.69;;;23.15;35.88
78223;BME280;67497;53.058;21.618;2023-02-03T21:24:32;99754.66;;;23.23;35.67
78223;BME280;67497;53.058;21.618;2023-02-03T21:26:34;99749.66;;;23.26;36.13
78223;BME280;67497;53.058;21.618;2023-02-03T21:28:35;99775.56;;;23.33;35.58
78223;BME280;67497;53.058;21.618;2023-02-03T21:30:35;99771.75;;;23.39;36.45
78223;BME280;67497;53.058;21.618;2023-02-03T21:32:38;99769.09;;;23.44;36.13
78223;BME280;67497;53.058;21.618;2023-02-03T21:34:41;99771.88;;;23.44;36.11
78223;BME280;67497;53.058;21.618;2023-02-03T21:36:42;99787.31;;;23.46;35.28
78223;BME280;67497;53.058;21.618;2023-02-03T21:38:44;99794.44;;;23.54;36.02
78223;BME280;67497;53.058;21.618;2023-02-03T21:40:45;99801.47;;;23.56;35.69
78223;BME280;67497;53.058;21.618;2023-02-03T21:42:46;99791.75;;;23.59;35.32
78223;BME280;67497;53.058;21.618;2023-02-03T21:44:46;99792.09;;;23.62;35.68
78223;BME280;67497;53.058;21.618;2023-02-03T21:46:47;99790.13;;;23.63;35.76
78223;BME280;67497;53.058;21.618;2023-02-03T21:48:49;99790.25;;;23.68;34.82
78223;BME280;67497;53.058;21.618;2023-02-03T21:50:51;99798.09;;;23.71;35.77
78223;BME280;67497;53.058;21.618;2023-02-03T21:52:52;99798.09;;;23.71;35.11
78223;BME280;67497;53.058;21.618;2023-02-03T21:54:53;99792.50;;;23.71;35.34
78223;BME280;67497;53.058;21.618;2023-02-03T21:56:54;99803.81;;;23.76;35.37
78223;BME280;67497;53.058;21.618;2023-02-03T21:58:55;99808.81;;;23.74;34.84
78223;BME280;67497;53.058;21.618;2023-02-03T22:00:59;99813.56;;;23.73;34.86
78223;BME280;67497;53.058;21.618;2023-02-03T22:03:00;99811.50;;;23.69;34.96
78223;BME280;67497;53.058;21.618;2023-02-03T22:05:02;99823.19;;;23.66;34.47
78223;BME280;67497;53.058;21.618;2023-02-03T22:07:13;99829.28;;;23.63;35.24
78223;BME280;67497;53.058;21.618;2023-02-03T22:09:20;99843.25;;;23.63;35.56
78223;BME280;67497;53.058;21.618;2023-02-03T22:11:23;99843.16;;;23.58;35.10
78223;BME280;67497;53.058;21.618;2023-02-03T22:13:24;99852.19;;;23.60;35.85
78223;BME280;67497;53.058;21.618;2023-02-03T22:15:25;99852.69;;;23.57;36.16
78223;BME280;67497;53.058;21.618;2023-02-03T22:17:25;99853.16;;;23.54;35.62
78223;BME280;67497;53.058;21.618;2023-02-03T22:19:26;99855.38;;;23.52;36.19
78223;BME280;67497;53.058;21.618;2023-02-03T22:21:26;99867.38;;;23.52;36.06
78223;BME280;67497;53.058;21.618;2023-02-03T22:23:27;99867.75;;;23.56;35.63
78223;BME280;67497;53.058;21.618;2023-02-03T22:25:27;99875.78;;;23.52;36.12
78223;BME280;67497;53.058;21.618;2023-02-03T22:27:28;99882.47;;;23.51;36.33
78223;BME280;67497;53.058;21.618;2023-02-03T22:29:29;99886.00;;;23.47;36.21
78223;BME280;67497;53.058;21.618;2023-02-03T22:31:30;99885.66;;;23.43;35.66
78223;BME280;67497;53.058;21.618;2023-02-03T22:33:30;99908.03;;;23.43;36.15
78223;BME280;67497;53.058;21.618;2023-02-03T22:35:31;99906.91;;;23.44;36.91
78223;BME280;67497;53.058;21.618;2023-02-03T22:37:31;99899.75;;;23.37;36.58
78223;BME280;67497;53.058;21.618;2023-02-03T22:39:32;99919.94;;;23.39;36.49
78223;BME280;67497;53.058;21.618;2023-02-03T22:41:32;99924.19;;;23.30;35.87
78223;BME280;67497;53.058;21.618;2023-02-03T22:43:33;99924.56;;;23.21;36.71
78223;BME280;67497;53.058;21.618;2023-02-03T22:45:34;99931.25;;;23.20;36.51
78223;BME280;67497;53.058;21.618;2023-02-03T22:47:35;99936.47;;;23.17;36.48
78223;BME280;67497;53.058;21.618;2023-02-03T22:49:35;99936.13;;;23.13;36.03
78223;BME280;67497;53.058;21.618;2023-02-03T22:51:36;99936.00;;;23.08;35.49
78223;BME280;67497;53.058;21.618;2023-02-03T22:53:36;99937.56;;;23.04;35.74
78223;BME280;67497;53.058;21.618;2023-02-03T22:55:38;99936.22;;;22.95;36.03
78223;BME280;67497;53.058;21.618;2023-02-03T22:57:39;99947.28;;;22.90;35.75
78223;BME280;67497;53.058;21.618;2023-02-03T22:59:40;99954.47;;;22.86;37.32
78223;BME280;67497;53.058;21.618;2023-02-03T23:01:40;99958.59;;;22.84;37.61
78223;BME280;67497;53.058;21.618;2023-02-03T23:03:41;99966.72;;;22.85;37.85
78223;BME280;67497;53.058;21.618;2023-02-03T23:05:41;99964.66;;;22.81;36.57
78223;BME280;67497;53.058;21.618;2023-02-03T23:07:43;99977.28;;;22.83;36.63
78223;BME280;67497;53.058;21.618;2023-02-03T23:09:43;99977.66;;;22.75;36.32
78223;BME280;67497;53.058;21.618;2023-02-03T23:11:44;99977.25;;;22.72;36.66
78223;BME280;67497;53.058;21.618;2023-02-03T23:13:45;99983.31;;;22.69;37.42
78223;BME280;67497;53.058;21.618;2023-02-03T23:15:47;99991.47;;;22.70;38.74
78223;BME280;67497;53.058;21.618;2023-02-03T23:17:48;99991.34;;;22.65;37.82
78223;BME280;67497;53.058;21.618;2023-02-03T23:19:48;100004.91;;;22.61;37.64
78223;BME280;67497;53.058;21.618;2023-02-03T23:21:49;100003.91;;;22.56;37.21
78223;BME280;67497;53.058;21.618;2023-02-03T23:23:49;100001.72;;;22.46;37.18
78223;BME280;67497;53.058;21.618;2023-02-03T23:25:50;100006.31;;;22.41;37.65
78223;BME280;67497;53.058;21.618;2023-02-03T23:27:50;100001.75;;;22.28;38.29
78223;BME280;67497;53.058;21.618;2023-02-03T23:29:51;100010.72;;;22.19;38.49
78223;BME280;67497;53.058;21.618;2023-02-03T23:31:51;100007.13;;;22.12;38.25
78223;BME280;67497;53.058;21.618;2023-02-03T23:33:52;100019.25;;;22.06;38.50
78223;BME280;67497;53.058;21.618;2023-02-03T23:36:11;100014.47;;;21.94;38.56
78223;BME280;67497;53.058;21.618;2023-02-03T23:38:15;100028.88;;;21.91;38.42
78223;BME280;67497;53.058;21.618;2023-02-03T23:40:16;100031.94;;;21.83;38.22
78223;BME280;67497;53.058;21.618;2023-02-03T23:42:17;100034.59;;;21.78;38.32
78223;BME280;67497;53.058;21.618;2023-02-03T23:44:18;100035.50;;;21.72;38.12
78223;BME280;67497;53.058;21.618;2023-02-03T23:46:18;100038.38;;;21.66;38.18
78223;BME280;67497;53.058;21.618;2023-02-03T23:48:18;100049.53;;;21.66;38.19
78223;BME280;67497;53.058;21.618;2023-02-03T23:50:19;100045.09;;;21.58;37.94
78223;BME280;67497;53.058;21.618;2023-02-03T23:52:19;100054.56;;;21.57;38.12
78223;BME280;67497;53.058;21.618;2023-02-03T23:54:20;100054.38;;;21.52;38.21
78223;BME280;67497;53.058;21.618;2023-02-03T23:56:20;100058.13;;;21.46;38.33
